Data for 06/22/2018

Time Sea-Level Adjusted Pressure Absolute Pressure Temperature Relative Humidity Dew Point   
(mb) (inHg) (mb) (inHg) (C) (F) (%) (C) (F)
00:05 1019 30.09 849 25.07 13.5 56.2 72 8.5 47.3
00:10 1019 30.09 848 25.04 13.4 56.2 72 8.5 47.3
00:15 1019 30.09 848 25.04 13.5 56.3 68 7.8 46.1
00:20 1019 30.09 849 25.07 13.6 56.5 67 7.6 45.7
00:25 1019 30.09 848 25.04 13.7 56.7 67 7.8 46.1
00:30 1019 30.09 848 25.04 13.7 56.6 67 7.8 46
00:35 1019 30.09 848 25.04 13.7 56.6 68 8 46.3
00:40 1019 30.09 848 25.04 13.5 56.4 69 8.1 46.5
00:45 1019 30.09 848 25.04 13.3 55.9 71 8.1 46.6
00:50 1019 30.09 848 25.04 13.2 55.8 71 8.2 46.7
00:55 1019 30.09 848 25.04 13.2 55.7 74 8.6 47.6
01:00 1019 30.09 848 25.04 13 55.3 77 9.1 48.3
01:05 1019 30.09 848 25.04 12.5 54.6 79 9 48.3
01:10 1019 30.09 848 25.04 12.4 54.2 80 8.9 48.1
01:15 1019 30.09 848 25.04 12.4 54.3 79 8.8 47.9
01:20 1019 30.09 848 25.04 12.4 54.3 79 9 48.1
01:25 1019 30.09 848 25.04 12.3 54.1 80 8.9 48.1
01:30 1019 30.09 848 25.04 12.3 54.1 78 8.5 47.3
01:35 1019 30.09 848 25.04 12.4 54.3 78 8.6 47.6
01:40 1019 30.09 848 25.04 12.3 54.1 79 8.9 47.9
01:45 1019 30.09 848 25.04 12.2 53.9 80 8.9 48
01:50 1019 30.09 848 25.04 12.1 53.8 79 8.5 47.4
01:55 1019 30.09 848 25.04 12.2 54 80 8.9 48
02:00 1019 30.09 848 25.04 12.2 54 80 9 48.2
02:05 1019 30.09 848 25.04 12.2 54 80 9 48.2
02:10 1019 30.09 848 25.04 12.2 54 79 8.8 47.8
02:15 1019 30.09 848 25.04 12.3 54.1 80 9 48.2
02:20 1019 30.09 848 25.04 12.2 54 79 8.8 47.8
02:25 1019 30.09 848 25.04 12.3 54.1 80 8.9 47.9
02:30 1019 30.09 848 25.04 12.3 54.2 80 9 48.3
02:35 1019 30.09 848 25.04 12.3 54.2 82 9.4 49
02:40 1019 30.09 848 25.04 12.2 54 83 9.5 49.1
02:45 1019 30.09 848 25.04 12 53.7 85 9.6 49.2
02:50 1019 30.09 848 25.04 11.9 53.3 83 9.1 48.4
02:55 1019 30.09 848 25.04 11.9 53.4 82 9 48.2
03:00 1019 30.09 848 25.04 12 53.7 83 9.2 48.6
03:05 1019 30.09 848 25.04 12 53.7 82 9.2 48.5
03:10 1019 30.09 848 25.04 12 53.6 83 9.3 48.7
03:15 1019 30.09 848 25.04 12 53.6 84 9.4 49
03:20 1019 30.09 848 25.04 12 53.6 84 9.4 48.8
03:25 1019 30.09 848 25.04 12 53.6 84 9.5 49
03:30 1019 30.09 848 25.04 12.1 53.7 81 8.9 48
03:35 1019 30.09 848 25.04 12.3 54.1 81 9.2 48.5
03:40 1019 30.09 848 25.04 12.4 54.3 77 8.6 47.4
03:45 1019 30.09 848 25.04 12.3 54.2 77 8.5 47.3
03:50 1019 30.09 848 25.04 12.3 54.1 78 8.5 47.3
03:55 1019 30.09 848 25.04 12.2 54 77 8.3 47
04:00 1019 30.09 848 25.04 12.3 54.1 78 8.5 47.3
04:05 1019 30.09 848 25.04 12.3 54.2 79 8.8 47.9
04:10 1019 30.09 848 25.04 12.3 54.1 80 8.9 48
04:15 1019 30.09 848 25.04 12.3 54.1 79 8.7 47.7
04:20 1019 30.09 848 25.04 12.3 54.2 80 9 48.3
04:25 1019 30.09 848 25.04 12.3 54.1 79 8.8 47.8
04:30 1019 30.09 848 25.04 12.2 54 82 9.2 48.6
04:35 1019 30.09 848 25.04 12.1 53.7 82 9.2 48.5
04:40 1019 30.09 848 25.04 11.9 53.5 82 9 48.3
04:45 1019 30.09 848 25.04 11.9 53.4 84 9.3 48.8
04:50 1019 30.09 848 25.04 11.8 53.3 83 9.1 48.4
04:55 1019 30.09 848 25.04 11.8 53.3 85 9.4 49
05:00 1019 30.09 848 25.04 11.7 53.1 86 9.5 49.1
05:05 1019 30.09 848 25.04 11.7 53 86 9.5 49
05:10 1019 30.09 848 25.04 11.7 53 86 9.4 48.8
05:15 1019 30.09 848 25.04 11.7 53 84 9.1 48.3
05:20 1019 30.09 848 25.04 11.8 53.2 83 8.9 48.1
05:25 1019 30.09 848 25.04 11.9 53.3 83 9.1 48.3
05:30 1019 30.09 848 25.04 11.9 53.4 81 8.8 47.9
05:35 1019 30.09 848 25.04 12.2 53.9 78 8.4 47.2
05:40 1019 30.09 848 25.04 12.4 54.2 78 8.7 47.6
05:45 1019 30.09 848 25.04 12.5 54.5 74 8 46.5
05:50 1019 30.09 848 25.04 12.7 54.8 75 8.4 47.1
05:55 1019 30.09 848 25.04 12.7 54.8 76 8.7 47.6
06:00 1019 30.09 848 25.04 12.6 54.7 76 8.6 47.5
06:05 1019 30.09 848 25.04 12.6 54.7 78 8.8 47.9
06:10 1019 30.09 848 25.04 12.5 54.4 78 8.8 47.8
06:15 1019 30.09 849 25.07 12.5 54.5 77 8.7 47.6
06:20 1019 30.09 849 25.07 12.5 54.5 76 8.4 47.1
06:25 1019 30.09 848 25.04 12.6 54.7 76 8.6 47.4
06:30 1019 30.09 848 25.04 12.7 54.8 75 8.4 47.2
06:35 1019 30.09 848 25.04 12.7 54.9 74 8.2 46.7
06:40 1019 30.09 848 25.04 12.7 54.9 75 8.4 47.1
06:45 1019 30.09 849 25.07 12.8 55.1 74 8.4 47.2
06:50 1019 30.09 849 25.07 12.9 55.1 74 8.3 46.9
06:55 1019 30.09 849 25.07 12.9 55.2 74 8.4 47.1
07:00 1019 30.09 849 25.07 12.9 55.2 75 8.6 47.4
07:05 1019 30.09 849 25.07 12.9 55.2 76 8.9 47.9
07:10 1019 30.09 849 25.07 12.9 55.3 74 8.4 47.2
07:15 1019 30.09 849 25.07 13.1 55.6 76 9 48.2
07:20 1019 30.09 848 25.04 13.2 55.7 74 8.6 47.5
07:25 1019 30.09 848 25.04 13.3 55.9 75 9 48.2
07:30 1019 30.09 848 25.04 13.3 55.9 76 9.2 48.5
07:35 1019 30.09 848 25.04 13.2 55.8 75 8.9 48.1
07:40 1019 30.09 849 25.07 13.3 55.9 77 9.3 48.7
07:45 1019 30.09 849 25.07 13.2 55.7 77 9.4 48.8
07:50 1019 30.09 848 25.04 13.2 55.8 80 9.9 49.7
07:55 1019 30.09 849 25.07 13.1 55.5 77 9.2 48.6
08:00 1019 30.09 848 25.04 13.2 55.8 73 8.4 47.2
08:05 1019 30.09 848 25.04 13.5 56.2 73 8.8 47.8
08:10 1019 30.09 848 25.04 13.6 56.6 71 8.6 47.4
08:15 1019 30.09 848 25.04 13.9 57 72 9 48.1
08:20 1019 30.09 848 25.04 14.2 57.5 68 8.4 47.1
08:25 1019 30.09 848 25.04 14.4 57.9 67 8.5 47.3
08:30 1019 30.09 848 25.04 14.8 58.6 68 9.1 48.3
08:35 1019 30.09 848 25.04 15.4 59.7 66 9 48.3
08:40 1019 30.09 849 25.07 16 60.8 64 9.2 48.6
08:45 1019 30.09 849 25.07 15.9 60.5 62 8.6 47.5
08:50 1019 30.09 849 25.07 15.8 60.5 65 9.3 48.8
08:55 1019 30.09 849 25.07 15.8 60.5 63 8.9 48
09:00 1019 30.09 849 25.07 15.7 60.2 63 8.8 47.8
09:05 1020 30.12 849 25.07 15.5 60 63 8.6 47.5
09:10 1020 30.12 849 25.07 15.4 59.8 65 9 48.3
09:15 1020 30.12 849 25.07 15.4 59.7 68 9.5 49.1
09:20 1020 30.12 849 25.07 15.3 59.6 69 9.8 49.6
09:25 1020 30.12 849 25.07 15.1 59.1 69 9.5 49.1
09:30 1020 30.12 849 25.07 15.1 59.1 70 9.8 49.6
09:35 1020 30.12 849 25.07 15.1 59.2 70 9.7 49.4
09:40 1020 30.12 849 25.07 15.2 59.3 69 9.7 49.4
09:45 1020 30.12 849 25.07 15.3 59.5 68 9.6 49.3
09:50 1020 30.12 849 25.07 15.4 59.6 68 9.5 49.1
09:55 1020 30.12 849 25.07 15.4 59.8 67 9.5 49.1
10:00 1020 30.12 849 25.07 15.4 59.8 67 9.5 49
10:05 1020 30.12 849 25.07 15.5 59.8 68 9.6 49.3
10:10 1020 30.12 849 25.07 15.5 59.9 67 9.5 49.1
10:15 1020 30.12 849 25.07 15.4 59.8 68 9.7 49.4
10:20 1020 30.12 849 25.07 15.5 59.9 68 9.7 49.4
10:25 1020 30.12 849 25.07 15.5 59.9 68 9.8 49.6
10:30 1020 30.12 849 25.07 15.5 59.9 68 9.7 49.4
10:35 1020 30.12 849 25.07 15.6 60 68 9.7 49.4
10:40 1020 30.12 849 25.07 15.5 60 67 9.6 49.2
10:45 1020 30.12 849 25.07 15.6 60.1 68 9.7 49.4
10:50 1020 30.12 849 25.07 15.7 60.3 68 9.9 49.9
10:55 1020 30.12 849 25.07 15.9 60.7 67 9.9 49.8
11:00 1020 30.12 849 25.07 16.1 61 65 9.6 49.4
11:05 1020 30.12 849 25.07 16.1 61 66 9.8 49.6
11:10 1020 30.12 849 25.07 16.1 60.9 65 9.6 49.3
11:15 1020 30.12 849 25.07 16.1 61 65 9.5 49.1
11:20 1020 30.12 849 25.07 16.2 61.1 62 9 48.3
11:25 1020 30.12 849 25.07 16.4 61.5 57 7.9 46.3
11:30 1020 30.12 849 25.07 16.8 62.2 58 8.5 47.3
11:35 1020 30.12 849 25.07 17.1 62.7 57 8.6 47.4
11:40 1020 30.12 849 25.07 17.2 63 56 8.4 47.2
11:45 1020 30.12 849 25.07 17.6 63.7 54 8.4 47.1
11:50 1020 30.12 849 25.07 17.4 63.4 55 8.5 47.3
11:55 1020 30.12 849 25.07 17.8 64.1 54 8.6 47.4
12:00 1020 30.12 849 25.07 17.8 64.1 54 8.4 47.2
12:05 1020 30.12 849 25.07 18.2 64.7 56 9.3 48.7
12:10 1020 30.12 849 25.07 17.9 64.2 52 7.9 46.2
12:15 1019 30.09 849 25.07 18 64.4 51 7.8 46
12:20 1019 30.09 849 25.07 18.1 64.6 52 8.1 46.6
12:25 1019 30.09 849 25.07 18.1 64.5 53 8.5 47.2
12:30 1019 30.09 849 25.07 17.4 63.4 56 8.8 47.8
12:35 1020 30.12 849 25.07 17.2 63 54 7.8 46.1
12:40 1019 30.09 849 25.07 16.8 62.3 55 7.7 45.9
12:45 1020 30.12 849 25.07 16.9 62.4 57 8.3 47
12:50 1020 30.12 849 25.07 16.9 62.4 58 8.7 47.7
12:55 1020 30.12 849 25.07 17 62.7 57 8.6 47.4
13:00 1020 30.12 849 25.07 17.3 63.1 55 8.3 47
13:05 1020 30.12 849 25.07 17.8 64.1 52 7.9 46.3
13:10 1019 30.09 849 25.07 18.2 64.7 52 8.3 46.9
13:15 1019 30.09 849 25.07 18.6 65.5 49 7.7 45.9
13:20 1019 30.09 849 25.07 18.9 66 48 7.8 46.1
13:25 1019 30.09 848 25.04 18.8 65.8 48 7.8 46
13:30 1019 30.09 848 25.04 19.4 67 45 7.2 45
13:35 1019 30.09 848 25.04 19.3 66.8 43 6.7 44.1
13:40 1019 30.09 848 25.04 19.5 67.1 45 7.5 45.4
13:45 1019 30.09 848 25.04 19.8 67.7 42 6.7 44
13:50 1019 30.09 848 25.04 20.5 68.9 41 7 44.6
13:55 1019 30.09 848 25.04 20.5 68.9 40 6.7 44.1
14:00 1019 30.09 848 25.04 20.9 69.5 41 7.3 45.2
14:05 1019 30.09 848 25.04 20.8 69.5 40 6.9 44.4
14:10 1019 30.09 848 25.04 21.3 70.3 39 7 44.6
14:15 1019 30.09 848 25.04 21.6 70.8 38 6.9 44.4
14:20 1019 30.09 848 25.04 21.9 71.4 38 6.9 44.5
14:25 1019 30.09 848 25.04 21 69.7 40 7.1 44.8
14:30 1019 30.09 848 25.04 20.3 68.6 40 6.6 43.9
14:35 1019 30.09 848 25.04 20.3 68.5 43 7.6 45.6
14:40 1019 30.09 848 25.04 20 67.9 42 6.9 44.4
14:45 1018 30.06 848 25.04 20.8 69.5 40 6.8 44.2
14:50 1018 30.06 848 25.04 20.8 69.4 40 6.8 44.3
14:55 1018 30.06 848 25.04 20.9 69.6 39 6.6 43.8
15:00 1018 30.06 848 25.04 21.6 70.8 35 5.8 42.5
15:05 1018 30.06 848 25.04 21.5 70.7 38 6.8 44.2
15:10 1018 30.06 848 25.04 21 69.8 40 7.2 45
15:15 1019 30.09 848 25.04 19.8 67.7 62 12.5 54.5
15:20 1019 30.09 848 25.04 16.7 62 68 10.9 51.6
15:25 1018 30.06 848 25.04 15.6 60.2 68 9.9 49.7
15:30 1018 30.06 847 25.01 15.7 60.2 59 7.8 46.1
15:35 1018 30.06 847 25.01 16.2 61.1 57 7.7 45.9
15:40 1018 30.06 847 25.01 16.5 61.7 57 8.1 46.6
15:45 1018 30.06 847 25.01 16.5 61.7 57 8 46.5
15:50 1018 30.06 847 25.01 16.8 62.2 59 8.7 47.6
15:55 1018 30.06 847 25.01 17.2 63 60 9.5 49.1
16:00 1018 30.06 847 25.01 17.8 64 57 9.2 48.5
16:05 1018 30.06 847 25.01 18.6 65.5 52 8.6 47.4
16:10 1018 30.06 847 25.01 19.5 67.1 45 7.2 45
16:15 1018 30.06 847 25.01 20.1 68.3 42 7 44.6
16:20 1018 30.06 847 25.01 20.4 68.7 43 7.7 45.8
16:25 1018 30.06 847 25.01 20 68.1 44 7.5 45.6
16:30 1017 30.03 847 25.01 20.3 68.5 44 7.7 45.8
16:35 1017 30.03 847 25.01 20.9 69.5 41 7.3 45.1
16:40 1017 30.03 847 25.01 21.1 70 43 8.1 46.5
16:45 1017 30.03 847 25.01 21.9 71.4 40 7.7 45.9
16:50 1017 30.03 847 25.01 21.9 71.4 42 8.6 47.4
16:55 1017 30.03 846 24.98 21.9 71.3 33 4.9 40.7
17:00 1017 30.03 846 24.98 22.1 71.7 33 5.3 41.6
17:05 1017 30.03 846 24.98 22.3 72.1 34 5.7 42.3
17:10 1017 30.03 846 24.98 22.4 72.4 33 5.5 41.8
17:15 1017 30.03 846 24.98 22.6 72.7 34 6.2 43.1
17:20 1017 30.03 846 24.98 22.3 72.2 33 5.7 42.2
17:25 1017 30.03 846 24.98 22.4 72.3 33 5.6 42.2
17:30 1017 30.03 846 24.98 21.7 71.1 33 4.7 40.5
17:35 1017 30.03 846 24.98 22.1 71.8 32 4.8 40.7
17:40 1017 30.03 846 24.98 22.1 71.7 31 4.3 39.8
17:45 1017 30.03 846 24.98 22.6 72.6 31 4.7 40.4
17:50 1017 30.03 846 24.98 22.1 71.7 33 5.4 41.7
17:55 1017 30.03 846 24.98 21.3 70.3 34 5 41
18:00 1017 30.03 846 24.98 20.9 69.6 35 5 41.1
18:05 1017 30.03 846 24.98 21.2 70.1 34 4.7 40.4
18:10 1017 30.03 846 24.98 21.2 70.2 34 4.9 40.8
18:15 1017 30.03 846 24.98 21.3 70.3 33 4.4 39.9
18:20 1017 30.03 846 24.98 21.6 70.8 32 4.2 39.6
18:25 1017 30.03 846 24.98 22.1 71.8 32 4.9 40.8
18:30 1017 30.03 846 24.98 22 71.6 33 5.1 41.2
18:35 1017 30.03 846 24.98 22.1 71.8 31 4.3 39.7
18:40 1016 30 846 24.98 22.5 72.6 30 4.4 39.9
18:45 1016 30 846 24.98 22.2 71.9 31 4.2 39.6
18:50 1016 30 846 24.98 22.6 72.6 30 4.3 39.8
18:55 1016 30 846 24.98 22.5 72.4 30 4.3 39.8
19:00 1016 30 846 24.98 22.4 72.4 30 4.1 39.3
19:05 1016 30 845 24.95 22.5 72.5 31 4.7 40.5
19:10 1016 30 845 24.95 22.1 71.8 32 4.9 40.9
19:15 1016 30 845 24.95 22.1 71.9 32 4.7 40.5
19:20 1016 30 845 24.95 21.9 71.4 34 5.4 41.6
19:25 1016 30 845 24.95 21.7 71.1 33 4.9 40.7
19:30 1016 30 845 24.95 21.5 70.7 34 5.4 41.6
19:35 1016 30 845 24.95 21.2 70.1 34 4.8 40.7
19:40 1016 30 845 24.95 21.3 70.3 35 5.3 41.6
19:45 1016 30 845 24.95 21.2 70.2 35 5.3 41.6
19:50 1016 30 845 24.95 21.1 70 35 5.4 41.7
19:55 1016 30 845 24.95 21.1 70 35 5.3 41.6
20:00 1016 30 845 24.95 21.2 70.2 36 5.8 42.4
20:05 1016 30 845 24.95 21.2 70.2 35 5.4 41.7
20:10 1016 30 845 24.95 21.2 70.1 35 5.4 41.8
20:15 1016 30 845 24.95 21.1 70 36 5.7 42.2
20:20 1016 30 845 24.95 21.1 70 35 5.2 41.3
20:25 1016 30 845 24.95 21.1 70 36 5.5 41.9
20:30 1016 30 845 24.95 21 69.8 40 6.9 44.4
20:35 1016 30 845 24.95 20.7 69.3 39 6.6 43.9
20:40 1016 30 845 24.95 20.5 69 41 6.9 44.4
20:45 1016 30 845 24.95 20.3 68.6 47 8.8 47.8
20:50 1016 30 845 24.95 19.7 67.5 51 9.3 48.7
20:55 1016 30 845 24.95 19.2 66.5 51 9 48.1
21:00 1016 30 845 24.95 18.7 65.7 52 8.7 47.6
21:05 1016 30 845 24.95 18.4 65.1 52 8.6 47.5
21:10 1016 30 845 24.95 17.9 64.2 54 8.5 47.3
21:15 1016 30 845 24.95 17.5 63.4 56 8.6 47.6
21:20 1016 30 845 24.95 17.1 62.8 57 8.7 47.7
21:25 1016 30 845 24.95 16.8 62.2 60 8.9 48.1
21:30 1016 30 845 24.95 16.4 61.5 61 8.9 48.1
21:35 1016 30 845 24.95 16.1 61.1 62 9 48.3
21:40 1016 30 845 24.95 15.9 60.6 64 9.1 48.5
21:45 1016 30 845 24.95 15.7 60.2 64 9 48.3
21:50 1016 30 845 24.95 15.6 60 64 8.9 48
21:55 1016 30 845 24.95 15.5 59.9 64 8.7 47.6
22:00 1016 30 845 24.95 15.4 59.6 62 8.2 46.8
22:05 1016 30 845 24.95 15.5 59.8 61 8.1 46.5
22:10 1016 30 845 24.95 15.7 60.3 59 7.7 45.8
22:15 1016 30 845 24.95 15.7 60.2 60 7.9 46.2
22:20 1016 30 845 24.95 15.6 60 59 7.6 45.7
22:25 1016 30 845 24.95 15.8 60.4 58 7.5 45.6
22:30 1016 30 845 24.95 15.6 60 59 7.7 45.9
22:35 1016 30 845 24.95 15.2 59.3 62 8.1 46.6
22:40 1016 30 845 24.95 14.9 58.7 61 7.6 45.6
22:45 1016 30 845 24.95 15 58.9 58 6.9 44.5
22:50 1016 30 845 24.95 15.5 59.8 59 7.6 45.7
22:55 1016 30 845 24.95 15.2 59.4 61 7.9 46.2
23:00 1016 30 845 24.95 14.8 58.7 63 7.9 46.3
23:05 1016 30 845 24.95 14.4 57.9 64 7.8 46
23:10 1016 30 845 24.95 14.2 57.5 65 7.7 45.8
23:15 1016 30 845 24.95 14.1 57.5 64 7.5 45.5
23:20 1016 30 845 24.95 14.2 57.6 64 7.6 45.7
23:25 1016 30 845 24.95 14.3 57.7 64 7.5 45.6
23:30 1016 30 845 24.95 14.3 57.8 63 7.5 45.4
23:35 1016 30 845 24.95 14.3 57.8 63 7.4 45.3
23:40 1016 30 845 24.95 14.4 57.9 62 7.3 45.1
23:45 1016 30 845 24.95 14.7 58.4 61 7.3 45.2
23:50 1017 30.03 846 24.98 14.9 58.8 56 6.4 43.4
23:55 1017 30.03 846 24.98 15.5 59.8 55 6.6 43.8
24:00 1017 30.03 846 24.98 15.5 60 56 6.8 44.2